createdAt,value
2019-03-24T00:00:30.392Z,4.80
2019-03-24T00:02:58.849Z,4.90
2019-03-24T00:05:27.298Z,4.90
2019-03-24T00:07:56.852Z,4.90
2019-03-24T00:10:25.561Z,4.90
2019-03-24T00:12:54.009Z,4.90
2019-03-24T00:15:26.497Z,4.90
2019-03-24T00:17:52.696Z,4.80
2019-03-24T00:20:21.133Z,4.80
2019-03-24T00:22:49.576Z,4.70
2019-03-24T00:25:18.013Z,4.60
2019-03-24T00:27:46.461Z,4.50
2019-03-24T00:30:15.510Z,4.50
2019-03-24T00:32:44.011Z,4.40
2019-03-24T00:35:12.580Z,4.40
2019-03-24T00:37:41.024Z,4.40
2019-03-24T00:40:10.037Z,4.50
2019-03-24T00:42:38.515Z,4.60
2019-03-24T00:45:10.562Z,4.60
2019-03-24T00:47:39.005Z,4.60
2019-03-24T00:50:07.914Z,4.60
2019-03-24T00:52:36.341Z,4.50
2019-03-24T00:55:06.953Z,4.60
2019-03-24T00:57:37.492Z,4.50
2019-03-24T01:00:07.521Z,4.60
2019-03-24T01:02:35.949Z,4.50
2019-03-24T01:05:06.337Z,4.60
2019-03-24T01:07:34.908Z,4.50
2019-03-24T01:10:04.889Z,4.50
2019-03-24T01:12:33.329Z,4.50
2019-03-24T01:15:01.773Z,4.50
2019-03-24T01:17:30.205Z,4.50
2019-03-24T01:19:58.665Z,4.40
2019-03-24T01:22:27.230Z,4.40
2019-03-24T01:24:55.674Z,4.40
2019-03-24T01:27:24.110Z,4.40
2019-03-24T01:29:52.571Z,4.30
2019-03-24T01:32:20.997Z,4.20
2019-03-24T01:34:49.441Z,4.20
2019-03-24T01:37:17.873Z,4.10
2019-03-24T01:39:46.572Z,4.00
2019-03-24T01:42:15.005Z,4.00
2019-03-24T01:44:43.449Z,4.00
2019-03-24T01:47:11.879Z,3.90
2019-03-24T01:49:40.326Z,3.90
2019-03-24T01:52:08.759Z,3.80
2019-03-24T01:54:37.545Z,3.80
2019-03-24T01:57:25.317Z,3.90
2019-03-24T01:59:53.764Z,3.90
2019-03-24T02:02:22.265Z,3.90
2019-03-24T02:04:50.704Z,4.00
2019-03-24T02:07:19.275Z,3.90
2019-03-24T02:09:48.184Z,4.00
2019-03-24T02:12:16.623Z,3.90
2019-03-24T02:14:45.153Z,3.80
2019-03-24T02:17:13.894Z,3.80
2019-03-24T02:19:42.324Z,3.80
2019-03-24T02:22:10.788Z,3.80
2019-03-24T02:24:39.212Z,3.90
2019-03-24T02:27:08.028Z,3.90
2019-03-24T02:29:36.468Z,3.90
2019-03-24T02:32:05.063Z,3.80
2019-03-24T02:34:33.505Z,3.80
2019-03-24T02:37:01.942Z,3.80
2019-03-24T02:39:30.382Z,3.70
2019-03-24T02:41:59.281Z,3.70
2019-03-24T02:44:27.718Z,3.60
2019-03-24T02:46:56.239Z,3.50
2019-03-24T02:49:24.676Z,3.50
2019-03-24T02:51:53.114Z,3.50
2019-03-24T02:54:21.547Z,3.50
2019-03-24T02:56:49.990Z,3.60
2019-03-24T02:59:18.418Z,3.60
2019-03-24T03:01:46.867Z,3.50
2019-03-24T03:04:15.297Z,3.50
2019-03-24T03:06:43.749Z,3.50
2019-03-24T03:09:12.242Z,3.40
2019-03-24T03:11:40.705Z,3.40
2019-03-24T03:14:09.198Z,3.40
2019-03-24T03:16:39.076Z,3.40
2019-03-24T03:19:08.303Z,3.40
2019-03-24T03:21:36.757Z,3.40
2019-03-24T03:24:05.583Z,3.40
2019-03-24T03:26:34.042Z,3.40
2019-03-24T03:29:02.547Z,3.30
2019-03-24T03:31:30.993Z,3.20
2019-03-24T03:33:59.433Z,3.10
2019-03-24T03:36:28.203Z,3.10
2019-03-24T03:38:56.763Z,3.10
2019-03-24T03:41:26.484Z,3.20
2019-03-24T03:43:54.910Z,3.20
2019-03-24T03:46:23.354Z,3.20
2019-03-24T03:48:51.789Z,3.20
2019-03-24T03:51:20.259Z,3.30
2019-03-24T03:53:48.692Z,3.30
2019-03-24T03:56:17.152Z,3.20
2019-03-24T03:58:45.601Z,3.20
2019-03-24T04:01:14.094Z,3.10
2019-03-24T04:03:42.540Z,3.00
2019-03-24T04:06:10.984Z,3.00
2019-03-24T04:08:39.776Z,3.10
2019-03-24T04:11:08.247Z,3.10
2019-03-24T04:13:36.766Z,3.10
2019-03-24T04:16:05.194Z,3.10
2019-03-24T04:18:33.738Z,3.10
2019-03-24T04:21:02.173Z,3.10
2019-03-24T04:23:30.636Z,3.10
2019-03-24T04:25:59.351Z,3.20
2019-03-24T04:28:27.790Z,3.10
2019-03-24T04:30:56.227Z,3.00
2019-03-24T04:33:24.695Z,2.80
2019-03-24T04:35:53.127Z,2.80
2019-03-24T04:38:21.581Z,2.80
2019-03-24T04:40:50.018Z,2.80
2019-03-24T04:43:18.482Z,2.90
2019-03-24T04:45:46.913Z,2.90
2019-03-24T04:48:15.360Z,2.90
2019-03-24T04:50:43.785Z,2.90
2019-03-24T04:53:12.257Z,3.00
2019-03-24T04:55:40.686Z,3.00
2019-03-24T04:58:09.152Z,2.90
2019-03-24T05:00:39.225Z,2.90
2019-03-24T05:03:07.754Z,2.80
2019-03-24T05:05:36.246Z,2.80
2019-03-24T05:08:05.101Z,2.80
2019-03-24T05:10:34.101Z,2.80
2019-03-24T05:13:02.545Z,2.80
2019-03-24T05:15:30.981Z,2.70
2019-03-24T05:17:59.431Z,2.70
2019-03-24T05:20:28.198Z,2.60
2019-03-24T05:22:56.645Z,2.60
2019-03-24T05:25:25.077Z,2.50
2019-03-24T05:27:53.528Z,2.40
2019-03-24T05:30:22.221Z,2.40
2019-03-24T05:32:51.033Z,2.50
2019-03-24T05:35:19.461Z,2.60
2019-03-24T05:37:47.893Z,2.70
2019-03-24T05:40:16.332Z,2.80
2019-03-24T05:42:45.050Z,2.80
2019-03-24T05:45:15.032Z,2.80
2019-03-24T05:47:43.461Z,2.90
2019-03-24T05:50:12.150Z,3.00
2019-03-24T05:52:40.585Z,2.90
2019-03-24T05:55:09.116Z,3.00
2019-03-24T05:57:37.553Z,3.00
2019-03-24T06:00:07.652Z,3.00
2019-03-24T06:02:36.092Z,3.10
2019-03-24T06:05:06.473Z,3.10
2019-03-24T06:07:34.905Z,3.10
2019-03-24T06:10:04.425Z,3.20
2019-03-24T06:12:32.865Z,3.20
2019-03-24T06:15:01.313Z,3.30
2019-03-24T06:17:29.746Z,3.40
2019-03-24T06:19:58.193Z,3.40
2019-03-24T06:22:26.625Z,3.50
2019-03-24T06:24:55.125Z,3.60
2019-03-24T06:27:23.560Z,3.70
2019-03-24T06:29:52.011Z,3.70
2019-03-24T06:32:20.437Z,3.80
2019-03-24T06:34:48.903Z,3.80
2019-03-24T06:37:17.333Z,3.90
2019-03-24T06:39:45.797Z,4.00
2019-03-24T06:42:14.554Z,4.10
2019-03-24T06:44:43.339Z,4.20
2019-03-24T06:47:11.768Z,4.30
2019-03-24T06:49:40.217Z,4.40
2019-03-24T06:52:08.659Z,4.50
2019-03-24T06:54:37.175Z,4.60
2019-03-24T06:57:05.605Z,4.70
2019-03-24T06:59:34.048Z,4.80
2019-03-24T07:02:02.476Z,4.90
2019-03-24T07:04:30.927Z,5.10
2019-03-24T07:06:59.360Z,5.20
2019-03-24T07:09:27.800Z,5.40
2019-03-24T07:11:56.234Z,5.50
2019-03-24T07:14:25.031Z,5.60
2019-03-24T07:16:53.461Z,5.80
2019-03-24T07:19:41.253Z,5.90
2019-03-24T07:22:09.680Z,6.00
2019-03-24T07:24:38.127Z,6.10
2019-03-24T07:27:06.558Z,6.20
2019-03-24T07:29:35.013Z,6.40
2019-03-24T07:32:03.450Z,6.50
2019-03-24T07:34:32.221Z,6.60
2019-03-24T07:37:00.742Z,6.70
2019-03-24T07:39:29.177Z,6.90
2019-03-24T07:41:57.617Z,7.00
2019-03-24T07:44:26.052Z,7.10
2019-03-24T07:46:54.497Z,7.20
2019-03-24T07:49:22.929Z,7.30
2019-03-24T07:51:51.441Z,7.50
2019-03-24T07:54:19.865Z,7.60
2019-03-24T07:56:48.309Z,7.70
2019-03-24T07:59:16.742Z,7.90
2019-03-24T08:01:48.332Z,8.00
2019-03-24T08:04:17.069Z,8.10
2019-03-24T08:06:45.539Z,8.20
2019-03-24T08:09:15.494Z,8.30
2019-03-24T08:11:43.961Z,8.40
2019-03-24T08:14:12.386Z,8.40
2019-03-24T08:16:40.829Z,8.60
2019-03-24T08:19:09.249Z,8.70
2019-03-24T08:21:37.697Z,8.70
2019-03-24T08:24:06.130Z,8.90
2019-03-24T08:26:34.569Z,8.90
2019-03-24T08:29:03.011Z,9.00
2019-03-24T08:31:31.445Z,9.10
2019-03-24T08:33:59.873Z,9.20
2019-03-24T08:36:28.322Z,9.30
2019-03-24T08:38:56.749Z,9.50
2019-03-24T08:41:25.193Z,9.50
2019-03-24T08:43:53.884Z,9.60
2019-03-24T08:46:22.326Z,9.60
2019-03-24T08:48:50.757Z,9.70
2019-03-24T08:51:19.204Z,9.80
2019-03-24T08:53:47.633Z,9.90
2019-03-24T08:56:16.078Z,10.00
2019-03-24T08:58:44.514Z,10.20
2019-03-24T09:01:12.962Z,10.30
2019-03-24T09:03:41.402Z,10.40
2019-03-24T09:06:09.854Z,10.40
2019-03-24T09:08:38.357Z,10.40
2019-03-24T09:11:06.877Z,10.40
2019-03-24T09:13:35.305Z,10.50
2019-03-24T09:16:03.744Z,10.60
2019-03-24T09:18:32.192Z,10.70
2019-03-24T09:21:00.945Z,10.70
2019-03-24T09:23:29.393Z,10.80
2019-03-24T09:25:58.754Z,10.90
2019-03-24T09:28:27.201Z,10.90
2019-03-24T09:30:55.637Z,11.00
2019-03-24T09:33:24.090Z,11.10
2019-03-24T09:35:52.525Z,11.30
2019-03-24T09:38:20.983Z,11.40
2019-03-24T09:40:49.409Z,11.50
2019-03-24T09:43:17.862Z,11.50
2019-03-24T09:45:46.297Z,11.50
2019-03-24T09:48:15.103Z,11.50
2019-03-24T09:50:43.577Z,11.60
2019-03-24T09:53:12.020Z,11.50
2019-03-24T09:55:40.801Z,11.60
2019-03-24T09:58:09.585Z,11.70
2019-03-24T10:00:39.663Z,11.80
2019-03-24T10:03:08.293Z,12.00
2019-03-24T10:05:36.724Z,12.00
2019-03-24T10:08:24.505Z,12.00
2019-03-24T10:10:53.199Z,12.00
2019-03-24T10:13:21.646Z,12.10
2019-03-24T10:15:50.153Z,12.30
2019-03-24T10:18:18.673Z,12.50
2019-03-24T10:20:47.107Z,12.50
2019-03-24T10:23:15.561Z,12.40
2019-03-24T10:25:43.997Z,12.50
2019-03-24T10:28:12.450Z,12.60
2019-03-24T10:30:40.877Z,12.70
2019-03-24T10:33:09.330Z,12.80
2019-03-24T10:35:37.762Z,12.80
2019-03-24T10:38:06.211Z,13.00
2019-03-24T10:40:34.730Z,13.10
2019-03-24T10:43:03.178Z,13.20
2019-03-24T10:45:31.662Z,13.20
2019-03-24T10:48:00.125Z,13.20
2019-03-24T10:50:28.902Z,13.40
2019-03-24T10:52:57.373Z,13.40
2019-03-24T10:55:25.804Z,13.40
2019-03-24T10:57:54.248Z,13.40
2019-03-24T11:00:31.363Z,13.40
2019-03-24T11:02:59.899Z,13.60
2019-03-24T11:05:28.329Z,13.60
2019-03-24T11:07:56.782Z,13.60
2019-03-24T11:10:25.213Z,13.70
2019-03-24T11:12:53.663Z,13.80
2019-03-24T11:15:22.103Z,13.90
2019-03-24T11:17:50.549Z,13.90
2019-03-24T11:20:18.986Z,13.90
2019-03-24T11:22:47.433Z,14.10
2019-03-24T11:25:18.306Z,14.20
2019-03-24T11:27:47.228Z,14.20
2019-03-24T11:30:16.374Z,14.10
2019-03-24T11:32:45.573Z,14.30
2019-03-24T11:35:14.513Z,14.30
2019-03-24T11:37:43.445Z,14.40
2019-03-24T11:40:13.269Z,14.50
2019-03-24T11:42:42.091Z,14.50
2019-03-24T11:45:12.018Z,14.50
2019-03-24T11:47:40.778Z,14.60
2019-03-24T11:50:10.797Z,14.60
2019-03-24T11:52:39.316Z,14.80
2019-03-24T11:55:09.409Z,14.80
2019-03-24T11:57:37.845Z,14.90
2019-03-24T12:00:16.761Z,15.00
2019-03-24T12:02:45.205Z,15.10
2019-03-24T12:05:13.753Z,14.90
2019-03-24T12:07:42.278Z,15.00
2019-03-24T12:10:13.091Z,15.20
2019-03-24T12:12:41.583Z,15.20
2019-03-24T12:15:10.685Z,15.30
2019-03-24T12:17:39.154Z,15.30
2019-03-24T12:20:09.674Z,15.40
2019-03-24T12:22:38.114Z,15.50
2019-03-24T12:25:08.753Z,15.40
2019-03-24T12:27:37.190Z,15.50
2019-03-24T12:30:07.881Z,15.50
2019-03-24T12:32:36.369Z,15.50
2019-03-24T12:35:08.283Z,15.60
2019-03-24T12:37:36.710Z,15.60
2019-03-24T12:40:07.386Z,15.70
2019-03-24T12:42:35.817Z,15.80
2019-03-24T12:45:09.407Z,16.00
2019-03-24T12:47:37.837Z,15.90
2019-03-24T12:50:10.272Z,16.10
2019-03-24T12:52:38.949Z,16.00
2019-03-24T12:55:07.922Z,15.90
2019-03-24T12:57:36.353Z,16.10
2019-03-24T13:00:10.468Z,16.30
2019-03-24T13:02:38.900Z,16.20
2019-03-24T13:05:08.789Z,16.20
2019-03-24T13:07:37.302Z,16.30
2019-03-24T13:10:06.487Z,16.40
2019-03-24T13:12:34.925Z,16.40
2019-03-24T13:15:04.922Z,16.40
2019-03-24T13:17:33.350Z,16.30
2019-03-24T13:20:02.125Z,16.40
2019-03-24T13:22:30.631Z,16.30
2019-03-24T13:24:59.070Z,16.30
2019-03-24T13:27:27.521Z,16.40
2019-03-24T13:29:55.957Z,16.40
2019-03-24T13:32:24.401Z,16.60
2019-03-24T13:34:52.837Z,16.60
2019-03-24T13:37:21.302Z,16.80
2019-03-24T13:39:49.774Z,16.70
2019-03-24T13:42:18.210Z,16.80
2019-03-24T13:44:46.659Z,16.80
2019-03-24T13:47:15.111Z,16.80
2019-03-24T13:49:43.541Z,16.90
2019-03-24T13:52:12.258Z,17.00
2019-03-24T13:54:40.698Z,17.00
2019-03-24T13:57:09.146Z,17.10
2019-03-24T13:59:37.578Z,16.90
2019-03-24T14:02:06.377Z,17.10
2019-03-24T14:04:34.801Z,17.00
2019-03-24T14:07:03.263Z,17.00
2019-03-24T14:09:31.685Z,17.10
2019-03-24T14:12:00.136Z,17.40
2019-03-24T14:14:28.569Z,17.30
2019-03-24T14:16:57.027Z,17.30
2019-03-24T14:19:25.458Z,17.30
2019-03-24T14:21:53.907Z,17.20
2019-03-24T14:24:22.637Z,17.30
2019-03-24T14:26:51.087Z,17.40
2019-03-24T14:29:19.560Z,17.50
2019-03-24T14:31:48.049Z,17.40
2019-03-24T14:34:16.481Z,17.30
2019-03-24T14:36:44.941Z,17.30
2019-03-24T14:39:13.618Z,17.20
2019-03-24T14:41:42.070Z,17.20
2019-03-24T14:44:10.505Z,17.40
2019-03-24T14:46:38.958Z,17.50
2019-03-24T14:49:07.760Z,17.50
2019-03-24T14:51:36.210Z,17.40
2019-03-24T14:54:04.722Z,17.60
2019-03-24T14:56:34.137Z,17.50
2019-03-24T14:59:02.769Z,17.30
2019-03-24T15:01:31.216Z,17.40
2019-03-24T15:03:59.665Z,17.40
2019-03-24T15:06:28.105Z,17.40
2019-03-24T15:08:56.562Z,17.40
2019-03-24T15:11:25.010Z,17.30
2019-03-24T15:13:53.456Z,17.40
2019-03-24T15:16:22.208Z,17.30
2019-03-24T15:18:50.656Z,17.30
2019-03-24T15:21:19.090Z,17.20
2019-03-24T15:23:47.537Z,17.10
2019-03-24T15:26:15.978Z,17.20
2019-03-24T15:28:44.438Z,17.10
2019-03-24T15:31:13.178Z,17.10
2019-03-24T15:33:41.627Z,17.10
2019-03-24T15:36:10.065Z,17.10
2019-03-24T15:38:38.770Z,17.00
2019-03-24T15:41:07.206Z,17.00
2019-03-24T15:43:35.658Z,16.80
2019-03-24T15:46:04.088Z,16.90
2019-03-24T15:48:32.538Z,17.00
2019-03-24T15:51:00.973Z,17.10
2019-03-24T15:53:29.421Z,16.90
2019-03-24T15:55:57.857Z,16.90
2019-03-24T15:58:26.301Z,16.80
2019-03-24T16:00:54.736Z,16.80
2019-03-24T16:03:23.186Z,17.00
2019-03-24T16:05:51.621Z,17.30
2019-03-24T16:08:20.072Z,17.30
2019-03-24T16:10:48.501Z,17.30
2019-03-24T16:13:16.974Z,17.30
2019-03-24T16:15:45.425Z,17.20
2019-03-24T16:18:13.924Z,17.10
2019-03-24T16:20:42.380Z,16.90
2019-03-24T16:23:10.834Z,16.70
2019-03-24T16:25:39.273Z,16.60
2019-03-24T16:28:07.745Z,16.60
2019-03-24T16:30:36.536Z,16.60
2019-03-24T16:33:05.115Z,16.50
2019-03-24T16:35:33.583Z,16.40
2019-03-24T16:38:02.285Z,16.20
2019-03-24T16:40:30.753Z,16.10
2019-03-24T16:42:59.194Z,15.90
2019-03-24T16:45:27.633Z,15.80
2019-03-24T16:47:56.089Z,15.70
2019-03-24T16:50:24.536Z,15.50
2019-03-24T16:52:52.973Z,15.40
2019-03-24T16:55:21.447Z,15.30
2019-03-24T16:57:50.019Z,15.20
2019-03-24T17:00:18.996Z,15.00
2019-03-24T17:02:47.622Z,14.90
2019-03-24T17:05:16.149Z,14.80
2019-03-24T17:07:44.655Z,14.70
2019-03-24T17:10:13.446Z,14.60
2019-03-24T17:12:41.882Z,14.50
2019-03-24T17:15:10.773Z,14.40
2019-03-24T17:17:39.465Z,14.30
2019-03-24T17:20:08.930Z,14.20
2019-03-24T17:22:37.444Z,14.10
2019-03-24T17:25:06.514Z,13.90
2019-03-24T17:27:34.957Z,13.80
2019-03-24T17:30:04.726Z,13.70
2019-03-24T17:32:33.262Z,13.60
2019-03-24T17:35:01.730Z,13.50
2019-03-24T17:37:30.179Z,13.40
2019-03-24T17:39:58.933Z,13.30
2019-03-24T17:42:27.377Z,13.20
2019-03-24T17:44:55.897Z,13.10
2019-03-24T17:47:24.336Z,13.10
2019-03-24T17:49:52.784Z,13.00
2019-03-24T17:52:21.588Z,12.90
2019-03-24T17:54:50.585Z,12.80
2019-03-24T17:57:19.129Z,12.70
2019-03-24T17:59:47.581Z,12.60
2019-03-24T18:02:16.029Z,12.60
2019-03-24T18:04:44.545Z,12.60
2019-03-24T18:07:13.259Z,12.60
2019-03-24T18:09:41.693Z,12.60
2019-03-24T18:12:10.394Z,12.60
2019-03-24T18:14:39.117Z,12.50
2019-03-24T18:17:07.633Z,12.50
2019-03-24T18:19:36.069Z,12.40
2019-03-24T18:22:11.646Z,12.40
2019-03-24T18:24:34.685Z,12.30
2019-03-24T18:27:03.140Z,12.30
2019-03-24T18:29:31.570Z,12.20
2019-03-24T18:32:00.335Z,12.20
2019-03-24T18:34:28.761Z,12.10
2019-03-24T18:36:57.219Z,12.00
2019-03-24T18:39:25.649Z,12.00
2019-03-24T18:41:54.357Z,12.00
2019-03-24T18:44:22.885Z,12.00
2019-03-24T18:46:51.338Z,12.00
2019-03-24T18:49:19.773Z,12.00
2019-03-24T18:51:48.226Z,12.00
2019-03-24T18:54:16.674Z,11.90
2019-03-24T18:56:45.188Z,11.90
2019-03-24T18:59:13.616Z,11.80
2019-03-24T19:01:42.733Z,11.80
2019-03-24T19:04:12.101Z,11.80
2019-03-24T19:06:41.397Z,11.80
2019-03-24T19:09:10.287Z,11.70
2019-03-24T19:11:39.647Z,11.70
2019-03-24T19:14:08.133Z,11.70
2019-03-24T19:16:36.590Z,11.60
2019-03-24T19:19:05.092Z,11.60
2019-03-24T19:21:33.706Z,11.60
2019-03-24T19:24:02.146Z,11.50
2019-03-24T19:26:30.598Z,11.50
2019-03-24T19:28:59.285Z,11.50
2019-03-24T19:31:27.947Z,11.40
2019-03-24T19:33:56.534Z,11.30
2019-03-24T19:36:25.050Z,11.30
2019-03-24T19:38:53.823Z,11.30
2019-03-24T19:41:22.533Z,11.30
2019-03-24T19:43:50.967Z,11.30
2019-03-24T19:46:19.413Z,11.30
2019-03-24T19:48:47.844Z,11.30
2019-03-24T19:51:16.282Z,11.30
2019-03-24T19:53:44.733Z,11.30
2019-03-24T19:56:13.169Z,11.20
2019-03-24T19:58:41.618Z,11.10
2019-03-24T20:01:10.057Z,11.10
2019-03-24T20:03:38.586Z,11.10
2019-03-24T20:06:07.094Z,11.10
2019-03-24T20:08:35.542Z,11.20
2019-03-24T20:11:04.218Z,11.10
2019-03-24T20:13:32.671Z,11.10
2019-03-24T20:16:01.104Z,11.00
2019-03-24T20:18:29.555Z,11.10
2019-03-24T20:20:58.678Z,11.10
2019-03-24T20:23:27.147Z,11.00
2019-03-24T20:25:55.910Z,11.10
2019-03-24T20:28:24.416Z,11.10
2019-03-24T20:30:53.181Z,11.10
2019-03-24T20:33:21.629Z,11.20
2019-03-24T20:35:50.065Z,11.20
2019-03-24T20:38:18.521Z,11.20
2019-03-24T20:40:47.213Z,11.20
2019-03-24T20:43:15.685Z,11.20
2019-03-24T20:45:44.482Z,11.20
2019-03-24T20:48:12.935Z,11.20
2019-03-24T20:50:41.426Z,11.30
2019-03-24T20:53:17.974Z,11.30
2019-03-24T20:55:40.066Z,11.30
2019-03-24T20:58:08.536Z,11.50
2019-03-24T21:00:37.409Z,11.60
2019-03-24T21:03:07.593Z,11.60
2019-03-24T21:05:36.370Z,11.60
2019-03-24T21:08:04.977Z,11.50
2019-03-24T21:10:33.482Z,11.50
2019-03-24T21:13:01.930Z,11.40
2019-03-24T21:15:30.367Z,11.30
2019-03-24T21:17:58.838Z,11.30
2019-03-24T21:20:27.273Z,11.30
2019-03-24T21:22:55.741Z,11.30
2019-03-24T21:25:24.185Z,11.30
2019-03-24T21:27:52.917Z,11.40
2019-03-24T21:30:24.486Z,11.50
2019-03-24T21:32:52.961Z,11.40
2019-03-24T21:35:21.397Z,11.50
2019-03-24T21:37:49.832Z,11.40
2019-03-24T21:40:18.285Z,11.50
2019-03-24T21:42:46.726Z,11.60
2019-03-24T21:45:15.518Z,11.70
2019-03-24T21:47:44.033Z,11.70
2019-03-24T21:50:13.205Z,11.80
2019-03-24T21:52:41.718Z,11.90
2019-03-24T21:55:10.306Z,11.90
2019-03-24T21:57:38.751Z,11.90
2019-03-24T22:00:09.385Z,11.90
2019-03-24T22:02:37.897Z,11.90
2019-03-24T22:05:06.781Z,11.90
2019-03-24T22:07:35.297Z,11.90
2019-03-24T22:10:05.970Z,12.00
2019-03-24T22:12:34.663Z,12.10
2019-03-24T22:15:03.261Z,12.10
2019-03-24T22:17:31.705Z,12.10
2019-03-24T22:20:00.511Z,12.10
2019-03-24T22:22:28.947Z,12.10
2019-03-24T22:24:57.394Z,12.10
2019-03-24T22:27:25.834Z,12.10
2019-03-24T22:29:54.282Z,12.10
2019-03-24T22:32:22.720Z,12.10
2019-03-24T22:34:51.174Z,12.00
2019-03-24T22:37:19.990Z,12.00
2019-03-24T22:39:48.453Z,12.00
2019-03-24T22:42:16.889Z,11.90
2019-03-24T22:44:45.350Z,11.80
2019-03-24T22:47:14.142Z,11.80
2019-03-24T22:49:42.617Z,11.80
2019-03-24T22:52:11.057Z,11.70
2019-03-24T22:54:39.515Z,11.70
2019-03-24T22:57:07.953Z,11.70
2019-03-24T22:59:36.401Z,11.70
2019-03-24T23:02:05.176Z,11.70
2019-03-24T23:04:33.705Z,11.80
2019-03-24T23:07:02.137Z,11.90
2019-03-24T23:09:30.663Z,11.90
2019-03-24T23:11:59.269Z,11.80
2019-03-24T23:14:27.721Z,11.80
2019-03-24T23:16:56.156Z,11.80
2019-03-24T23:19:24.611Z,11.80
2019-03-24T23:21:53.051Z,11.70
2019-03-24T23:24:21.513Z,11.70
2019-03-24T23:26:49.956Z,11.60
2019-03-24T23:29:18.401Z,11.60
2019-03-24T23:31:46.833Z,11.70
2019-03-24T23:34:15.285Z,11.70
2019-03-24T23:36:43.724Z,11.70
2019-03-24T23:39:12.170Z,11.60
2019-03-24T23:41:40.612Z,11.50
2019-03-24T23:44:09.113Z,11.50
2019-03-24T23:46:37.566Z,11.50
2019-03-24T23:49:06.042Z,11.50
2019-03-24T23:51:34.530Z,11.50
2019-03-24T23:54:02.961Z,11.40
2019-03-24T23:56:31.408Z,11.40
2019-03-24T23:58:59.841Z,11.30
